sensor_id;sensor_type;location;lat;lon;timestamp;temperature;humidity
752;DHT22;360;48.764;9.164;2023-03-21T00:02:25;10.20;46.10
752;DHT22;360;48.764;9.164;2023-03-21T00:04:52;10.10;99.90
752;DHT22;360;48.764;9.164;2023-03-21T00:07:20;10.30;54.30
752;DHT22;360;48.764;9.164;2023-03-21T00:09:47;10.30;1.00
752;DHT22;360;48.764;9.164;2023-03-21T00:12:14;10.30;1.00
752;DHT22;360;48.764;9.164;2023-03-21T00:14:41;10.30;11.50
752;DHT22;360;48.764;9.164;2023-03-21T00:17:09;10.30;99.90
752;DHT22;360;48.764;9.164;2023-03-21T00:19:36;10.30;99.90
752;DHT22;360;48.764;9.164;2023-03-21T00:22:05;10.20;1.00
752;DHT22;360;48.764;9.164;2023-03-21T00:24:34;10.00;69.20
752;DHT22;360;48.764;9.164;2023-03-21T00:27:00;10.00;1.00
752;DHT22;360;48.764;9.164;2023-03-21T00:29:28;10.30;1.00
752;DHT22;360;48.764;9.164;2023-03-21T00:31:54;10.20;1.00
752;DHT22;360;48.764;9.164;2023-03-21T00:34:21;10.10;99.90
752;DHT22;360;48.764;9.164;2023-03-21T00:36:48;9.90;1.00
752;DHT22;360;48.764;9.164;2023-03-21T00:39:15;10.10;1.00
752;DHT22;360;48.764;9.164;2023-03-21T00:41:43;10.10;1.00
752;DHT22;360;48.764;9.164;2023-03-21T00:44:11;9.90;99.90
752;DHT22;360;48.764;9.164;2023-03-21T00:46:40;9.90;1.00
752;DHT22;360;48.764;9.164;2023-03-21T00:49:07;9.90;99.90
752;DHT22;360;48.764;9.164;2023-03-21T00:51:34;10.00;99.90
752;DHT22;360;48.764;9.164;2023-03-21T00:54:01;10.10;1.00
752;DHT22;360;48.764;9.164;2023-03-21T00:56:30;10.00;1.00
752;DHT22;360;48.764;9.164;2023-03-21T00:58:58;9.90;99.90
752;DHT22;360;48.764;9.164;2023-03-21T01:01:24;10.00;1.00
752;DHT22;360;48.764;9.164;2023-03-21T01:03:56;10.00;1.00
752;DHT22;360;48.764;9.164;2023-03-21T01:06:27;10.00;99.90
752;DHT22;360;48.764;9.164;2023-03-21T01:08:54;10.20;1.00
752;DHT22;360;48.764;9.164;2023-03-21T01:11:23;10.20;1.00
752;DHT22;360;48.764;9.164;2023-03-21T01:13:51;10.20;1.00
752;DHT22;360;48.764;9.164;2023-03-21T01:16:19;10.20;1.00
752;DHT22;360;48.764;9.164;2023-03-21T01:18:46;10.20;99.90
752;DHT22;360;48.764;9.164;2023-03-21T01:21:13;10.30;99.90
752;DHT22;360;48.764;9.164;2023-03-21T01:23:41;10.20;1.00
752;DHT22;360;48.764;9.164;2023-03-21T01:26:09;10.20;99.90
752;DHT22;360;48.764;9.164;2023-03-21T01:28:38;10.40;1.00
752;DHT22;360;48.764;9.164;2023-03-21T01:31:05;10.40;1.00
752;DHT22;360;48.764;9.164;2023-03-21T01:33:34;10.20;14.60
752;DHT22;360;48.764;9.164;2023-03-21T01:36:01;10.20;1.00
752;DHT22;360;48.764;9.164;2023-03-21T01:38:29;10.20;1.00
752;DHT22;360;48.764;9.164;2023-03-21T01:40:58;10.20;1.00
752;DHT22;360;48.764;9.164;2023-03-21T01:43:27;10.10;31.60
752;DHT22;360;48.764;9.164;2023-03-21T01:46:36;10.20;1.00
752;DHT22;360;48.764;9.164;2023-03-21T01:49:08;10.00;1.00
752;DHT22;360;48.764;9.164;2023-03-21T01:51:40;10.00;99.90
752;DHT22;360;48.764;9.164;2023-03-21T01:54:10;10.20;89.60
752;DHT22;360;48.764;9.164;2023-03-21T01:56:39;10.10;55.70
752;DHT22;360;48.764;9.164;2023-03-21T01:59:10;10.20;1.00
752;DHT22;360;48.764;9.164;2023-03-21T02:01:39;10.10;1.00
752;DHT22;360;48.764;9.164;2023-03-21T02:04:09;10.20;1.00
752;DHT22;360;48.764;9.164;2023-03-21T02:06:41;10.00;1.00
752;DHT22;360;48.764;9.164;2023-03-21T02:09:13;10.00;1.00
752;DHT22;360;48.764;9.164;2023-03-21T02:11:43;10.00;1.00
752;DHT22;360;48.764;9.164;2023-03-21T02:14:14;10.00;1.00
752;DHT22;360;48.764;9.164;2023-03-21T02:16:56;10.00;1.00
752;DHT22;360;48.764;9.164;2023-03-21T02:20:09;9.90;1.00
752;DHT22;360;48.764;9.164;2023-03-21T02:23:15;10.00;99.90
752;DHT22;360;48.764;9.164;2023-03-21T02:26:04;9.90;1.00
752;DHT22;360;48.764;9.164;2023-03-21T02:28:39;9.70;1.00
752;DHT22;360;48.764;9.164;2023-03-21T02:31:27;9.70;1.00
752;DHT22;360;48.764;9.164;2023-03-21T02:34:31;9.60;1.00
752;DHT22;360;48.764;9.164;2023-03-21T02:37:20;9.50;99.90
752;DHT22;360;48.764;9.164;2023-03-21T02:39:55;9.60;1.00
752;DHT22;360;48.764;9.164;2023-03-21T02:42:31;9.60;24.10
752;DHT22;360;48.764;9.164;2023-03-21T02:45:02;9.50;99.90
752;DHT22;360;48.764;9.164;2023-03-21T02:47:33;9.50;99.90
752;DHT22;360;48.764;9.164;2023-03-21T02:50:06;9.50;99.90
752;DHT22;360;48.764;9.164;2023-03-21T02:52:36;9.40;48.70
752;DHT22;360;48.764;9.164;2023-03-21T02:55:05;9.40;99.90
752;DHT22;360;48.764;9.164;2023-03-21T02:57:39;9.60;99.90
752;DHT22;360;48.764;9.164;2023-03-21T03:00:08;9.60;1.00
752;DHT22;360;48.764;9.164;2023-03-21T03:02:37;9.60;1.00
752;DHT22;360;48.764;9.164;2023-03-21T03:05:13;9.70;1.00
752;DHT22;360;48.764;9.164;2023-03-21T03:07:50;9.70;1.00
752;DHT22;360;48.764;9.164;2023-03-21T03:10:36;9.50;1.00
752;DHT22;360;48.764;9.164;2023-03-21T03:13:12;9.60;1.00
752;DHT22;360;48.764;9.164;2023-03-21T03:15:46;9.70;99.90
752;DHT22;360;48.764;9.164;2023-03-21T03:18:22;9.60;99.90
752;DHT22;360;48.764;9.164;2023-03-21T03:20:58;9.50;99.90
752;DHT22;360;48.764;9.164;2023-03-21T03:23:33;9.50;1.00
752;DHT22;360;48.764;9.164;2023-03-21T03:26:04;9.50;1.00
752;DHT22;360;48.764;9.164;2023-03-21T03:28:36;9.50;99.90
752;DHT22;360;48.764;9.164;2023-03-21T03:31:05;9.50;1.00
752;DHT22;360;48.764;9.164;2023-03-21T03:33:34;9.50;1.00
752;DHT22;360;48.764;9.164;2023-03-21T03:36:03;9.60;1.00
752;DHT22;360;48.764;9.164;2023-03-21T03:38:33;9.60;99.90
752;DHT22;360;48.764;9.164;2023-03-21T03:41:05;9.40;1.00
752;DHT22;360;48.764;9.164;2023-03-21T03:43:39;9.30;53.10
752;DHT22;360;48.764;9.164;2023-03-21T03:46:13;9.40;99.90
752;DHT22;360;48.764;9.164;2023-03-21T03:48:46;9.40;39.70
752;DHT22;360;48.764;9.164;2023-03-21T03:51:16;9.50;55.20
752;DHT22;360;48.764;9.164;2023-03-21T03:53:50;9.40;99.90
752;DHT22;360;48.764;9.164;2023-03-21T03:56:18;9.40;99.90
752;DHT22;360;48.764;9.164;2023-03-21T03:58:47;9.50;1.00
752;DHT22;360;48.764;9.164;2023-03-21T04:01:14;9.40;1.00
752;DHT22;360;48.764;9.164;2023-03-21T04:03:44;9.50;1.00
752;DHT22;360;48.764;9.164;2023-03-21T04:06:12;9.40;99.90
752;DHT22;360;48.764;9.164;2023-03-21T04:08:38;9.40;1.00
752;DHT22;360;48.764;9.164;2023-03-21T04:11:07;9.30;99.90
752;DHT22;360;48.764;9.164;2023-03-21T04:13:34;9.20;1.00
752;DHT22;360;48.764;9.164;2023-03-21T04:16:01;9.10;1.00
752;DHT22;360;48.764;9.164;2023-03-21T04:18:29;9.10;1.00
752;DHT22;360;48.764;9.164;2023-03-21T04:20:56;9.10;99.90
752;DHT22;360;48.764;9.164;2023-03-21T04:23:23;9.20;1.00
752;DHT22;360;48.764;9.164;2023-03-21T04:25:51;9.20;99.90
752;DHT22;360;48.764;9.164;2023-03-21T04:28:19;9.10;99.90
752;DHT22;360;48.764;9.164;2023-03-21T04:30:47;9.20;99.90
752;DHT22;360;48.764;9.164;2023-03-21T04:33:15;9.10;99.90
752;DHT22;360;48.764;9.164;2023-03-21T04:35:42;9.20;99.90
752;DHT22;360;48.764;9.164;2023-03-21T04:38:10;9.10;99.90
752;DHT22;360;48.764;9.164;2023-03-21T04:40:36;8.90;1.00
752;DHT22;360;48.764;9.164;2023-03-21T04:43:03;9.00;1.00
752;DHT22;360;48.764;9.164;2023-03-21T04:45:31;9.00;1.00
752;DHT22;360;48.764;9.164;2023-03-21T04:47:58;8.90;1.00
752;DHT22;360;48.764;9.164;2023-03-21T04:50:25;8.70;1.00
752;DHT22;360;48.764;9.164;2023-03-21T07:23:17;8.60;99.90
752;DHT22;360;48.764;9.164;2023-03-21T07:25:46;9.60;99.90
752;DHT22;360;48.764;9.164;2023-03-21T07:28:14;9.60;99.90
752;DHT22;360;48.764;9.164;2023-03-21T07:30:41;9.90;96.80
752;DHT22;360;48.764;9.164;2023-03-21T07:33:08;9.90;99.90
752;DHT22;360;48.764;9.164;2023-03-21T07:35:37;10.00;99.90
752;DHT22;360;48.764;9.164;2023-03-21T07:38:04;10.10;7.90
752;DHT22;360;48.764;9.164;2023-03-21T07:40:31;10.30;1.00
752;DHT22;360;48.764;9.164;2023-03-21T07:55:16;10.40;99.90
752;DHT22;360;48.764;9.164;2023-03-21T07:57:43;11.30;55.20
752;DHT22;360;48.764;9.164;2023-03-21T08:00:11;11.40;1.00
752;DHT22;360;48.764;9.164;2023-03-21T08:02:38;11.40;1.00
752;DHT22;360;48.764;9.164;2023-03-21T08:05:05;11.30;1.00
752;DHT22;360;48.764;9.164;2023-03-21T08:07:32;11.30;1.00
752;DHT22;360;48.764;9.164;2023-03-21T08:10:00;11.40;1.00
752;DHT22;360;48.764;9.164;2023-03-21T08:12:28;11.40;1.00
752;DHT22;360;48.764;9.164;2023-03-21T08:14:55;11.50;1.00
752;DHT22;360;48.764;9.164;2023-03-21T08:17:22;11.70;1.00
752;DHT22;360;48.764;9.164;2023-03-21T08:19:49;11.80;1.00
752;DHT22;360;48.764;9.164;2023-03-21T08:22:16;11.90;99.90
752;DHT22;360;48.764;9.164;2023-03-21T08:24:42;12.00;99.90
752;DHT22;360;48.764;9.164;2023-03-21T08:27:11;12.00;99.90
752;DHT22;360;48.764;9.164;2023-03-21T08:29:37;12.20;99.90
752;DHT22;360;48.764;9.164;2023-03-21T08:32:07;12.30;99.90
752;DHT22;360;48.764;9.164;2023-03-21T08:34:34;12.30;99.90
752;DHT22;360;48.764;9.164;2023-03-21T08:37:01;12.40;99.90
752;DHT22;360;48.764;9.164;2023-03-21T08:39:28;12.50;99.90
752;DHT22;360;48.764;9.164;2023-03-21T08:41:55;12.60;99.90
752;DHT22;360;48.764;9.164;2023-03-21T08:44:23;12.60;99.90
752;DHT22;360;48.764;9.164;2023-03-21T08:46:51;12.70;99.90
752;DHT22;360;48.764;9.164;2023-03-21T08:49:18;12.70;99.90
752;DHT22;360;48.764;9.164;2023-03-21T08:51:45;12.70;99.90
752;DHT22;360;48.764;9.164;2023-03-21T08:54:18;12.80;99.90
752;DHT22;360;48.764;9.164;2023-03-21T08:56:45;13.00;99.90
752;DHT22;360;48.764;9.164;2023-03-21T08:59:12;13.10;99.90
752;DHT22;360;48.764;9.164;2023-03-21T09:01:40;13.20;99.90
752;DHT22;360;48.764;9.164;2023-03-21T09:04:07;13.30;99.90
752;DHT22;360;48.764;9.164;2023-03-21T09:06:35;13.30;99.90
752;DHT22;360;48.764;9.164;2023-03-21T09:09:03;13.50;99.90
752;DHT22;360;48.764;9.164;2023-03-21T09:11:31;13.40;99.90
752;DHT22;360;48.764;9.164;2023-03-21T09:13:58;13.60;99.90
752;DHT22;360;48.764;9.164;2023-03-21T09:16:26;13.70;99.90
752;DHT22;360;48.764;9.164;2023-03-21T09:18:54;13.80;99.90
752;DHT22;360;48.764;9.164;2023-03-21T09:21:24;13.70;99.90
752;DHT22;360;48.764;9.164;2023-03-21T09:23:52;13.70;99.90
752;DHT22;360;48.764;9.164;2023-03-21T09:26:21;13.70;99.90
752;DHT22;360;48.764;9.164;2023-03-21T09:28:48;14.00;99.90
752;DHT22;360;48.764;9.164;2023-03-21T09:31:16;14.00;98.00
752;DHT22;360;48.764;9.164;2023-03-21T09:33:47;13.90;94.30
752;DHT22;360;48.764;9.164;2023-03-21T09:36:16;14.00;92.90
752;DHT22;360;48.764;9.164;2023-03-21T09:38:47;14.20;88.00
752;DHT22;360;48.764;9.164;2023-03-21T09:41:22;14.40;92.10
752;DHT22;360;48.764;9.164;2023-03-21T09:43:59;14.70;71.30
752;DHT22;360;48.764;9.164;2023-03-21T09:46:37;14.40;64.90
752;DHT22;360;48.764;9.164;2023-03-21T09:49:10;14.60;63.10
752;DHT22;360;48.764;9.164;2023-03-21T09:51:41;14.80;61.00
752;DHT22;360;48.764;9.164;2023-03-21T09:54:12;15.10;62.30
752;DHT22;360;48.764;9.164;2023-03-21T09:56:42;15.40;58.90
752;DHT22;360;48.764;9.164;2023-03-21T09:59:18;15.50;58.20
752;DHT22;360;48.764;9.164;2023-03-21T10:01:47;15.50;55.70
752;DHT22;360;48.764;9.164;2023-03-21T10:04:15;15.40;56.80
752;DHT22;360;48.764;9.164;2023-03-21T10:06:52;15.20;58.40
752;DHT22;360;48.764;9.164;2023-03-21T10:09:23;15.30;60.60
752;DHT22;360;48.764;9.164;2023-03-21T10:11:54;15.30;62.50
752;DHT22;360;48.764;9.164;2023-03-21T10:14:27;15.30;60.30
752;DHT22;360;48.764;9.164;2023-03-21T10:16:57;15.40;58.20
752;DHT22;360;48.764;9.164;2023-03-21T10:19:26;15.40;59.00
752;DHT22;360;48.764;9.164;2023-03-21T10:21:55;15.60;59.00
752;DHT22;360;48.764;9.164;2023-03-21T10:24:24;15.90;60.10
752;DHT22;360;48.764;9.164;2023-03-21T10:26:53;15.80;58.80
752;DHT22;360;48.764;9.164;2023-03-21T10:29:24;16.10;54.90
752;DHT22;360;48.764;9.164;2023-03-21T10:31:53;16.30;53.30
752;DHT22;360;48.764;9.164;2023-03-21T10:34:29;16.30;49.00
752;DHT22;360;48.764;9.164;2023-03-21T10:36:58;16.70;47.70
752;DHT22;360;48.764;9.164;2023-03-21T10:39:28;16.70;44.60
752;DHT22;360;48.764;9.164;2023-03-21T10:41:57;16.80;48.30
752;DHT22;360;48.764;9.164;2023-03-21T10:44:28;16.50;42.70
752;DHT22;360;48.764;9.164;2023-03-21T10:46:57;16.30;42.90
752;DHT22;360;48.764;9.164;2023-03-21T10:49:24;16.40;42.00
752;DHT22;360;48.764;9.164;2023-03-21T10:51:54;16.60;40.50
752;DHT22;360;48.764;9.164;2023-03-21T10:54:27;16.80;39.00
752;DHT22;360;48.764;9.164;2023-03-21T10:56:57;17.00;38.90
752;DHT22;360;48.764;9.164;2023-03-21T10:59:27;17.00;35.60
752;DHT22;360;48.764;9.164;2023-03-21T11:01:55;16.80;31.70
752;DHT22;360;48.764;9.164;2023-03-21T11:04:24;16.90;29.00
752;DHT22;360;48.764;9.164;2023-03-21T11:06:53;16.80;28.00
752;DHT22;360;48.764;9.164;2023-03-21T11:09:23;17.10;26.50
752;DHT22;360;48.764;9.164;2023-03-21T11:11:53;17.20;25.60
752;DHT22;360;48.764;9.164;2023-03-21T11:14:25;17.10;25.30
752;DHT22;360;48.764;9.164;2023-03-21T11:16:52;16.90;24.40
752;DHT22;360;48.764;9.164;2023-03-21T11:19:28;17.00;24.80
752;DHT22;360;48.764;9.164;2023-03-21T11:21:56;16.90;23.90
752;DHT22;360;48.764;9.164;2023-03-21T11:24:27;16.60;23.30
752;DHT22;360;48.764;9.164;2023-03-21T11:26:56;16.70;22.50
752;DHT22;360;48.764;9.164;2023-03-21T11:29:29;16.90;22.10
752;DHT22;360;48.764;9.164;2023-03-21T11:31:58;16.80;16.90
752;DHT22;360;48.764;9.164;2023-03-21T11:34:30;17.00;17.50
752;DHT22;360;48.764;9.164;2023-03-21T11:37:00;16.80;15.60
752;DHT22;360;48.764;9.164;2023-03-21T11:39:33;16.90;13.40
752;DHT22;360;48.764;9.164;2023-03-21T11:42:05;17.00;14.00
752;DHT22;360;48.764;9.164;2023-03-21T11:44:34;16.90;12.20
752;DHT22;360;48.764;9.164;2023-03-21T11:47:08;16.90;9.70
752;DHT22;360;48.764;9.164;2023-03-21T11:49:36;17.00;10.10
752;DHT22;360;48.764;9.164;2023-03-21T11:52:11;16.80;6.50
752;DHT22;360;48.764;9.164;2023-03-21T11:54:57;16.60;3.20
752;DHT22;360;48.764;9.164;2023-03-21T11:57:33;16.60;2.20
752;DHT22;360;48.764;9.164;2023-03-21T12:00:10;16.80;2.50
752;DHT22;360;48.764;9.164;2023-03-21T12:03:02;16.80;2.50
752;DHT22;360;48.764;9.164;2023-03-21T12:05:36;16.70;1.40
752;DHT22;360;48.764;9.164;2023-03-21T12:08:12;16.60;1.50
752;DHT22;360;48.764;9.164;2023-03-21T12:10:52;16.70;1.00
752;DHT22;360;48.764;9.164;2023-03-21T12:13:38;16.60;1.50
752;DHT22;360;48.764;9.164;2023-03-21T12:16:19;16.50;2.20
752;DHT22;360;48.764;9.164;2023-03-21T12:19:00;16.80;3.20
752;DHT22;360;48.764;9.164;2023-03-21T12:21:33;16.80;2.10
752;DHT22;360;48.764;9.164;2023-03-21T12:24:08;16.70;1.00
752;DHT22;360;48.764;9.164;2023-03-21T12:26:42;16.80;1.00
752;DHT22;360;48.764;9.164;2023-03-21T12:29:31;16.80;1.00
752;DHT22;360;48.764;9.164;2023-03-21T12:32:09;16.70;1.00
752;DHT22;360;48.764;9.164;2023-03-21T12:35:15;16.70;1.00
752;DHT22;360;48.764;9.164;2023-03-21T12:37:52;16.60;1.00
752;DHT22;360;48.764;9.164;2023-03-21T12:40:35;16.90;6.60
752;DHT22;360;48.764;9.164;2023-03-21T12:43:25;17.10;1.00
752;DHT22;360;48.764;9.164;2023-03-21T12:45:56;17.30;1.00
752;DHT22;360;48.764;9.164;2023-03-21T12:48:30;17.20;1.00
752;DHT22;360;48.764;9.164;2023-03-21T12:51:01;17.50;1.00
752;DHT22;360;48.764;9.164;2023-03-21T12:53:38;17.40;1.00
752;DHT22;360;48.764;9.164;2023-03-21T12:56:10;17.50;1.00
752;DHT22;360;48.764;9.164;2023-03-21T12:58:45;17.50;1.00
752;DHT22;360;48.764;9.164;2023-03-21T13:01:14;17.50;1.00
752;DHT22;360;48.764;9.164;2023-03-21T13:03:46;17.80;1.00
752;DHT22;360;48.764;9.164;2023-03-21T13:06:17;18.10;1.00
752;DHT22;360;48.764;9.164;2023-03-21T13:08:47;18.00;1.00
752;DHT22;360;48.764;9.164;2023-03-21T13:11:17;18.20;1.00
752;DHT22;360;48.764;9.164;2023-03-21T13:13:51;18.20;1.00
752;DHT22;360;48.764;9.164;2023-03-21T13:16:21;18.20;1.00
752;DHT22;360;48.764;9.164;2023-03-21T13:18:55;18.20;1.00
752;DHT22;360;48.764;9.164;2023-03-21T13:21:33;18.30;1.00
752;DHT22;360;48.764;9.164;2023-03-21T13:24:03;18.30;1.00
752;DHT22;360;48.764;9.164;2023-03-21T13:26:32;18.20;1.00
752;DHT22;360;48.764;9.164;2023-03-21T13:29:12;18.10;1.00
752;DHT22;360;48.764;9.164;2023-03-21T13:31:43;18.10;1.00
752;DHT22;360;48.764;9.164;2023-03-21T13:34:11;18.20;1.00
752;DHT22;360;48.764;9.164;2023-03-21T13:36:39;18.20;1.00
752;DHT22;360;48.764;9.164;2023-03-21T13:39:16;18.20;1.00
752;DHT22;360;48.764;9.164;2023-03-21T13:41:44;18.10;1.00
752;DHT22;360;48.764;9.164;2023-03-21T13:44:23;18.10;1.00
752;DHT22;360;48.764;9.164;2023-03-21T13:46:54;17.80;1.00
752;DHT22;360;48.764;9.164;2023-03-21T13:49:30;17.80;1.00
752;DHT22;360;48.764;9.164;2023-03-21T13:51:59;17.80;1.00
752;DHT22;360;48.764;9.164;2023-03-21T13:54:43;17.60;1.00
752;DHT22;360;48.764;9.164;2023-03-21T13:57:21;17.90;1.00
752;DHT22;360;48.764;9.164;2023-03-21T14:00:19;17.90;1.00
752;DHT22;360;48.764;9.164;2023-03-21T14:02:52;17.80;1.00
752;DHT22;360;48.764;9.164;2023-03-21T14:05:22;17.80;1.00
752;DHT22;360;48.764;9.164;2023-03-21T14:07:53;17.60;1.00
752;DHT22;360;48.764;9.164;2023-03-21T14:10:24;17.70;1.00
752;DHT22;360;48.764;9.164;2023-03-21T14:12:52;17.80;1.00
752;DHT22;360;48.764;9.164;2023-03-21T14:15:22;17.90;1.00
752;DHT22;360;48.764;9.164;2023-03-21T14:17:52;17.90;1.00
752;DHT22;360;48.764;9.164;2023-03-21T14:20:22;17.80;1.00
752;DHT22;360;48.764;9.164;2023-03-21T14:22:49;17.70;1.00
752;DHT22;360;48.764;9.164;2023-03-21T14:25:18;17.70;1.00
752;DHT22;360;48.764;9.164;2023-03-21T14:27:48;17.70;1.00
752;DHT22;360;48.764;9.164;2023-03-21T14:30:24;17.80;1.00
752;DHT22;360;48.764;9.164;2023-03-21T14:32:53;17.90;1.00
752;DHT22;360;48.764;9.164;2023-03-21T14:35:22;17.90;1.00
752;DHT22;360;48.764;9.164;2023-03-21T14:37:50;17.80;1.00
752;DHT22;360;48.764;9.164;2023-03-21T14:40:20;17.60;1.00
752;DHT22;360;48.764;9.164;2023-03-21T14:42:49;17.70;1.00
752;DHT22;360;48.764;9.164;2023-03-21T14:45:19;17.60;1.00
752;DHT22;360;48.764;9.164;2023-03-21T14:48:03;17.60;1.00
752;DHT22;360;48.764;9.164;2023-03-21T14:50:35;17.50;1.00
752;DHT22;360;48.764;9.164;2023-03-21T14:53:04;17.50;1.00
752;DHT22;360;48.764;9.164;2023-03-21T14:55:31;17.50;1.00
752;DHT22;360;48.764;9.164;2023-03-21T14:57:59;17.50;1.00
752;DHT22;360;48.764;9.164;2023-03-21T15:00:27;17.60;1.00
752;DHT22;360;48.764;9.164;2023-03-21T15:02:57;17.90;1.00
752;DHT22;360;48.764;9.164;2023-03-21T15:05:28;18.00;1.00
752;DHT22;360;48.764;9.164;2023-03-21T15:07:57;18.00;1.00
752;DHT22;360;48.764;9.164;2023-03-21T15:10:26;18.20;1.00
752;DHT22;360;48.764;9.164;2023-03-21T15:12:55;18.30;1.00
752;DHT22;360;48.764;9.164;2023-03-21T15:15:23;18.50;1.00
752;DHT22;360;48.764;9.164;2023-03-21T15:17:51;18.60;1.00
752;DHT22;360;48.764;9.164;2023-03-21T15:20:21;18.70;1.00
